Time;durP1;ratioP1;P1;durP2;ratioP2;P2;SDS_P1;SDS_P2;PMS_P1;PMS_P2;Temp;Humidity;BMP_temperature;BMP_pressure;BME280_temperature;BME280_humidity;BME280_pressure;Samples;Min_cycle;Max_cycle;Signal;HPM_P1;HPM_P2
2022/04/03 00:00:42;;;;;;;50.78;9.23;;;-1.80;99.90;;;;;;4792577;29;20065;-73
2022/04/03 00:03:10;;;;;;;71.70;11.93;;;-1.80;99.90;;;;;;4824637;29;20058;-72
2022/04/03 00:05:41;;;;;;;43.40;9.35;;;-1.90;99.90;;;;;;4806267;29;20578;-73
2022/04/03 00:08:12;;;;;;;48.72;10.85;;;-1.90;99.90;;;;;;4824391;29;20066;-72
2022/04/03 00:10:40;;;;;;;43.83;9.65;;;-1.90;99.90;;;;;;4804580;29;20123;-72
2022/04/03 00:13:08;;;;;;;47.00;11.13;;;-1.90;99.90;;;;;;4821015;29;20198;-72
2022/04/03 00:15:41;;;;;;;51.38;10.30;;;-2.00;99.90;;;;;;4823228;29;20088;-72
2022/04/03 00:18:10;;;;;;;58.13;11.05;;;-2.00;99.90;;;;;;4824583;29;20123;-72
2022/04/03 00:20:38;;;;;;;50.58;11.77;;;-2.00;99.90;;;;;;4803658;29;20455;-73
2022/04/03 00:23:07;;;;;;;50.45;11.38;;;-2.00;99.90;;;;;;4815926;29;20149;-72
2022/04/03 00:25:35;;;;;;;44.42;11.15;;;-2.00;99.90;;;;;;4823534;29;20066;-72
2022/04/03 00:28:03;;;;;;;44.15;13.13;;;-2.00;99.90;;;;;;4815111;29;20063;-73
2022/04/03 00:30:30;;;;;;;45.72;10.23;;;-2.00;99.90;;;;;;4806208;29;20145;-72
2022/04/03 00:32:57;;;;;;;36.42;9.35;;;-2.10;99.90;;;;;;4822279;29;20054;-72
2022/04/03 00:35:27;;;;;;;29.23;8.77;;;-2.00;99.90;;;;;;4806936;29;20131;-72
2022/04/03 00:37:54;;;;;;;44.53;10.57;;;-2.00;99.90;;;;;;4822088;29;20050;-73
2022/04/03 00:40:23;;;;;;;40.22;10.80;;;-2.10;99.90;;;;;;4822993;29;20149;-72
2022/04/03 00:42:51;;;;;;;42.55;10.07;;;-2.10;99.90;;;;;;4822852;29;20061;-72
2022/04/03 00:45:19;;;;;;;28.17;9.63;;;-2.10;99.90;;;;;;4823725;29;20261;-72
2022/04/03 00:47:46;;;;;;;68.80;11.00;;;-2.10;99.90;;;;;;4820975;29;20825;-72
2022/04/03 00:50:14;;;;;;;28.92;9.13;;;-2.10;99.90;;;;;;4806620;29;20066;-72
2022/04/03 00:52:43;;;;;;;27.30;8.27;;;-2.20;99.90;;;;;;4822669;29;20054;-72
2022/04/03 00:55:11;;;;;;;27.80;9.10;;;-2.00;99.90;;;;;;4807594;29;20100;-72
2022/04/03 00:57:39;;;;;;;28.25;7.85;;;-1.80;99.90;;;;;;4821503;29;20094;-72
2022/04/03 01:00:08;;;;;;;22.25;7.65;;;-1.70;99.90;;;;;;4822969;29;20172;-72
2022/04/03 01:02:35;;;;;;;30.88;9.77;;;-1.70;99.90;;;;;;4805988;29;20541;-72
2022/04/03 01:05:03;;;;;;;32.88;9.27;;;-1.70;99.90;;;;;;4807442;29;20058;-73
2022/04/03 01:07:31;;;;;;;23.45;7.95;;;-1.60;99.90;;;;;;4804235;29;20397;-72
2022/04/03 01:10:00;;;;;;;20.00;7.10;;;-1.50;99.90;;;;;;4822698;29;20070;-73
2022/04/03 01:12:27;;;;;;;28.88;8.95;;;-1.40;99.90;;;;;;4791659;29;20503;-73
2022/04/03 01:14:54;;;;;;;16.67;7.43;;;-1.30;99.90;;;;;;4805049;29;20054;-72
2022/04/03 01:17:22;;;;;;;24.88;7.45;;;-1.20;99.90;;;;;;4806016;29;20062;-72
2022/04/03 01:19:49;;;;;;;18.27;6.72;;;-1.20;99.90;;;;;;4805971;29;20062;-73
2022/04/03 01:22:17;;;;;;;24.17;8.48;;;-1.10;99.90;;;;;;4823001;29;20115;-72
2022/04/03 01:24:45;;;;;;;24.10;6.63;;;-1.00;99.90;;;;;;4821093;29;20054;-71
2022/04/03 01:27:14;;;;;;;26.50;9.27;;;-1.00;99.90;;;;;;4821524;29;20452;-77
2022/04/03 01:29:41;;;;;;;22.67;7.75;;;-1.10;99.90;;;;;;4805082;29;20070;-75
2022/04/03 01:32:10;;;;;;;17.85;7.20;;;-1.30;99.90;;;;;;4792197;29;20064;-75
2022/04/03 01:34:37;;;;;;;19.27;6.85;;;-1.40;99.90;;;;;;4803311;29;20058;-75
2022/04/03 01:37:05;;;;;;;13.98;6.18;;;-1.50;99.90;;;;;;4806957;29;20532;-75
2022/04/03 01:39:33;;;;;;;17.95;8.35;;;-1.50;99.90;;;;;;4804415;29;20550;-75
2022/04/03 01:42:00;;;;;;;12.45;6.15;;;-1.50;99.90;;;;;;4821908;29;20526;-75
2022/04/03 01:44:30;;;;;;;12.35;6.13;;;-1.50;99.90;;;;;;4819983;29;20150;-75
2022/04/03 01:46:58;;;;;;;15.10;7.13;;;-1.50;99.90;;;;;;4822470;29;20425;-75
2022/04/03 01:49:25;;;;;;;18.95;6.55;;;-1.50;99.90;;;;;;4821580;29;20123;-75
2022/04/03 01:51:52;;;;;;;13.18;5.68;;;-1.60;99.90;;;;;;4805319;29;20156;-75
2022/04/03 01:54:20;;;;;;;9.88;4.90;;;-1.60;99.90;;;;;;4822256;29;20062;-75
2022/04/03 01:56:48;;;;;;;11.45;6.13;;;-1.40;99.90;;;;;;4790385;29;20073;-74
2022/04/03 01:59:17;;;;;;;10.35;5.65;;;-1.30;99.90;;;;;;4806231;29;20058;-75
2022/04/03 02:01:46;;;;;;;11.27;5.38;;;-1.30;99.90;;;;;;4802156;29;20142;-75
2022/04/03 02:04:13;;;;;;;9.98;5.25;;;-1.40;99.90;;;;;;4840898;29;20070;-74
2022/04/03 02:06:41;;;;;;;8.75;5.38;;;-1.60;99.90;;;;;;4839698;29;20100;-74
2022/04/03 02:09:11;;;;;;;11.27;5.82;;;-1.70;99.90;;;;;;4824478;29;20126;-75
2022/04/03 02:11:39;;;;;;;12.18;5.72;;;-1.80;99.90;;;;;;4809357;29;20138;-74
2022/04/03 02:14:06;;;;;;;11.77;6.18;;;-1.80;99.90;;;;;;4805927;29;20062;-76
2022/04/03 02:16:34;;;;;;;11.70;5.70;;;-1.90;99.90;;;;;;4820742;29;20519;-76
2022/04/03 02:19:03;;;;;;;12.23;6.03;;;-2.00;99.90;;;;;;4806315;29;20066;-76
2022/04/03 02:21:31;;;;;;;14.48;6.38;;;-2.00;99.90;;;;;;4819719;29;20577;-74
2022/04/03 02:23:58;;;;;;;11.10;6.30;;;-2.00;99.90;;;;;;4790412;29;20504;-75
2022/04/03 02:26:25;;;;;;;17.75;6.65;;;-2.10;99.90;;;;;;4804841;29;20142;-75
2022/04/03 02:28:53;;;;;;;35.03;8.52;;;-2.00;99.90;;;;;;4788425;29;20058;-74
2022/04/03 02:31:20;;;;;;;14.30;6.55;;;-2.10;99.90;;;;;;4821352;29;20063;-75
2022/04/03 02:33:48;;;;;;;15.70;7.72;;;-2.10;99.90;;;;;;4821746;29;20089;-75
2022/04/03 02:36:17;;;;;;;20.60;8.35;;;-2.10;99.90;;;;;;4805099;29;20547;-74
2022/04/03 02:38:44;;;;;;;23.70;8.77;;;-2.00;99.90;;;;;;4802539;29;20137;-74
2022/04/03 02:41:12;;;;;;;23.05;9.43;;;-2.00;99.90;;;;;;4791078;29;20153;-74
2022/04/03 02:43:40;;;;;;;20.15;9.93;;;-1.90;99.90;;;;;;4804433;29;20050;-74
2022/04/03 02:46:10;;;;;;;21.90;8.85;;;-1.90;99.90;;;;;;4806256;29;20058;-74
2022/04/03 02:48:37;;;;;;;26.15;9.65;;;-2.00;99.90;;;;;;4803415;29;20058;-74
2022/04/03 02:51:05;;;;;;;20.08;8.18;;;-2.00;99.90;;;;;;4822281;29;20540;-73
2022/04/03 02:54:28;;;;;;;18.70;9.15;;;-2.00;99.90;;;;;;4803728;29;20432;-74
2022/04/03 02:56:55;;;;;;;12.27;7.00;;;-2.00;99.90;;;;;;4776156;29;20058;-74
2022/04/03 02:59:22;;;;;;;22.55;7.18;;;-2.00;99.90;;;;;;4802572;29;20054;-73
2022/04/03 03:01:50;;;;;;;19.02;7.22;;;-2.00;99.90;;;;;;4802331;29;20058;-74
2022/04/03 03:04:17;;;;;;;18.92;8.02;;;-2.00;99.90;;;;;;4787257;29;20440;-74
2022/04/03 03:06:45;;;;;;;22.10;7.22;;;-2.00;99.90;;;;;;4817631;29;20054;-74
2022/04/03 03:09:13;;;;;;;24.60;7.97;;;-2.00;99.90;;;;;;4840247;29;20472;-74
2022/04/03 03:11:42;;;;;;;33.67;10.23;;;-1.80;99.90;;;;;;4838932;29;20595;-75
2022/04/03 03:14:10;;;;;;;26.75;11.77;;;-1.70;99.90;;;;;;4831787;29;20058;-74
2022/04/03 03:16:37;;;;;;;34.08;12.50;;;-1.70;99.90;;;;;;4803623;29;20081;-74
2022/04/03 03:19:04;;;;;;;27.73;11.15;;;-1.80;99.90;;;;;;4821733;29;20073;-74
2022/04/03 03:21:31;;;;;;;35.85;12.93;;;-1.90;99.90;;;;;;4803811;29;20358;-74
2022/04/03 03:23:59;;;;;;;38.33;14.23;;;-1.90;99.90;;;;;;4789441;29;20069;-74
2022/04/03 03:26:29;;;;;;;39.70;13.65;;;-2.00;99.90;;;;;;4819538;29;20062;-74
2022/04/03 03:28:58;;;;;;;45.92;15.20;;;-2.00;99.90;;;;;;4821146;29;20070;-74
2022/04/03 03:31:25;;;;;;;39.13;14.35;;;-2.00;99.90;;;;;;4789703;29;20492;-74
2022/04/03 03:33:56;;;;;;;41.60;15.05;;;-2.10;99.90;;;;;;4819284;29;20059;-73
2022/04/03 03:36:23;;;;;;;40.28;13.48;;;-2.10;99.90;;;;;;4835829;29;20058;-73
2022/04/03 03:38:51;;;;;;;36.20;12.43;;;-2.10;99.90;;;;;;4821888;29;20575;-72
2022/04/03 03:41:18;;;;;;;31.70;12.15;;;-2.10;99.90;;;;;;4800297;29;20431;-74
2022/04/03 03:43:45;;;;;;;28.13;11.27;;;-2.10;99.90;;;;;;4801678;29;20551;-73
2022/04/03 03:46:15;;;;;;;32.92;10.75;;;-2.10;99.90;;;;;;4839862;29;20058;-73
2022/04/03 03:48:42;;;;;;;23.88;10.52;;;-2.20;99.90;;;;;;4838101;29;20076;-74
2022/04/03 03:51:09;;;;;;;21.48;10.13;;;-2.20;99.90;;;;;;4812055;29;20104;-72
2022/04/03 03:53:37;;;;;;;34.28;10.30;;;-2.20;99.90;;;;;;4820154;29;20496;-73
2022/04/03 03:56:05;;;;;;;24.83;9.80;;;-2.20;99.90;;;;;;4821486;29;20161;-73
2022/04/03 03:58:33;;;;;;;21.02;8.93;;;-2.10;99.90;;;;;;4803143;29;20583;-73
2022/04/03 04:01:00;;;;;;;31.27;11.23;;;-2.20;99.90;;;;;;4820357;29;20142;-73
2022/04/03 04:03:29;;;;;;;25.40;10.10;;;-2.20;99.90;;;;;;4811842;29;20062;-73
2022/04/03 04:05:56;;;;;;;23.90;9.02;;;-2.20;99.90;;;;;;4838900;29;20064;-73
2022/04/03 04:08:23;;;;;;;23.52;10.00;;;-2.20;99.90;;;;;;4798091;29;20431;-73
2022/04/03 04:10:51;;;;;;;23.10;10.30;;;-2.20;99.90;;;;;;4787684;29;20062;-73
2022/04/03 04:13:18;;;;;;;27.77;11.35;;;-2.20;99.90;;;;;;4812787;29;20438;-74
2022/04/03 04:15:45;;;;;;;20.95;10.98;;;-2.30;99.90;;;;;;4823537;29;20066;-74
2022/04/03 04:18:13;;;;;;;22.30;11.27;;;-2.30;99.90;;;;;;4805421;29;20062;-73
2022/04/03 04:20:43;;;;;;;36.17;11.95;;;-2.20;99.90;;;;;;4822761;29;20063;-73
2022/04/03 04:23:10;;;;;;;30.98;12.25;;;-2.10;99.90;;;;;;4823453;29;20062;-73
2022/04/03 04:25:37;;;;;;;28.30;11.68;;;-2.00;99.90;;;;;;4823454;29;20082;-74
2022/04/03 04:28:05;;;;;;;38.95;12.15;;;-2.00;99.90;;;;;;4822718;29;20058;-73
2022/04/03 04:30:33;;;;;;;29.33;12.00;;;-2.00;99.90;;;;;;4809254;29;20054;-73
2022/04/03 04:33:01;;;;;;;28.45;11.38;;;-2.00;99.90;;;;;;4804667;29;20058;-73
2022/04/03 04:35:29;;;;;;;27.13;10.90;;;-2.00;99.90;;;;;;4805659;29;20065;-75
2022/04/03 04:37:58;;;;;;;30.77;12.30;;;-2.00;99.90;;;;;;4807791;29;20260;-75
2022/04/03 04:40:25;;;;;;;24.88;12.18;;;-2.10;99.90;;;;;;4820883;29;20064;-75
2022/04/03 04:42:53;;;;;;;29.17;11.68;;;-2.10;99.90;;;;;;4806137;29;20062;-75
2022/04/03 04:45:20;;;;;;;20.50;11.07;;;-2.10;99.90;;;;;;4822463;29;20123;-75
2022/04/03 04:47:48;;;;;;;21.63;10.18;;;-2.00;99.90;;;;;;4823898;29;20070;-75
2022/04/03 04:50:18;;;;;;;23.27;9.77;;;-1.90;99.90;;;;;;4818911;29;20103;-75
2022/04/03 04:52:46;;;;;;;17.02;9.70;;;-1.90;99.90;;;;;;4838447;29;20066;-75
2022/04/03 04:55:14;;;;;;;12.90;7.75;;;-1.70;99.90;;;;;;4820752;29;20054;-76
2022/04/03 04:57:42;;;;;;;16.25;7.18;;;-1.70;99.90;;;;;;4787113;29;20085;-76
2022/04/03 05:00:13;;;;;;;12.35;6.75;;;-1.70;99.90;;;;;;4807183;29;20148;-76
2022/04/03 05:02:45;;;;;;;9.00;6.35;;;-1.70;99.90;;;;;;4816096;29;20064;-75
2022/04/03 05:05:13;;;;;;;12.07;6.50;;;-1.60;99.90;;;;;;4823553;29;20523;-75
2022/04/03 05:07:41;;;;;;;11.27;6.75;;;-1.60;99.90;;;;;;4789869;29;20405;-76
2022/04/03 05:10:10;;;;;;;10.77;6.90;;;-1.50;99.90;;;;;;4807295;29;20054;-76
2022/04/03 05:12:40;;;;;;;9.10;6.40;;;-1.40;99.90;;;;;;4804793;29;20062;-75
2022/04/03 05:15:10;;;;;;;17.98;5.93;;;-1.50;99.90;;;;;;4807059;29;20050;-76
2022/04/03 05:17:38;;;;;;;11.15;6.03;;;-1.40;99.90;;;;;;4813794;29;20160;-76
2022/04/03 05:20:10;;;;;;;13.13;5.55;;;-1.30;99.90;;;;;;4824629;29;20122;-76
2022/04/03 05:22:37;;;;;;;8.57;6.00;;;-1.20;99.90;;;;;;4806070;29;20054;-76
2022/04/03 05:25:06;;;;;;;10.32;5.80;;;-1.10;99.90;;;;;;4820994;29;20435;-76
2022/04/03 05:27:34;;;;;;;8.75;6.28;;;-1.00;99.90;;;;;;4822339;29;20111;-75
2022/04/03 05:30:05;;;;;;;19.25;7.13;;;-1.00;99.90;;;;;;4804776;29;20050;-75
2022/04/03 05:32:33;;;;;;;12.35;6.35;;;-0.90;99.90;;;;;;4806207;29;20157;-73
2022/04/03 05:35:01;;;;;;;15.02;5.82;;;-0.80;99.90;;;;;;4805573;29;20058;-75
2022/04/03 05:37:28;;;;;;;14.32;6.40;;;-0.90;99.90;;;;;;4841423;29;20073;-73
2022/04/03 05:39:56;;;;;;;15.07;5.88;;;-0.90;99.90;;;;;;4827600;29;20062;-73
2022/04/03 05:42:23;;;;;;;13.45;5.63;;;-0.90;99.90;;;;;;4823279;29;20054;-73
2022/04/03 05:44:51;;;;;;;13.07;5.53;;;-0.90;99.90;;;;;;4825646;29;20062;-74
2022/04/03 05:47:20;;;;;;;9.98;5.97;;;-0.90;99.90;;;;;;4806122;29;20055;-74
2022/04/03 05:49:48;;;;;;;10.00;5.75;;;-0.90;99.90;;;;;;4819870;29;20303;-74
2022/04/03 05:52:15;;;;;;;14.65;6.85;;;-0.80;99.90;;;;;;4822827;29;20054;-74
2022/04/03 05:54:43;;;;;;;7.97;5.40;;;-0.70;99.90;;;;;;4784750;29;20051;-74
2022/04/03 05:57:11;;;;;;;11.77;5.93;;;-0.60;99.90;;;;;;4821372;29;20066;-74
2022/04/03 05:59:38;;;;;;;17.45;5.78;;;-0.50;99.90;;;;;;4805741;29;20115;-75
2022/04/03 06:02:06;;;;;;;21.48;6.70;;;-0.40;99.90;;;;;;4806569;29;20062;-75
2022/04/03 06:04:35;;;;;;;18.95;8.68;;;-0.10;99.90;;;;;;4819591;29;20398;-74
2022/04/03 06:07:02;;;;;;;14.07;5.95;;;0.60;99.90;;;;;;4820990;29;20076;-75
2022/04/03 06:09:30;;;;;;;12.27;6.18;;;1.50;99.90;;;;;;4804905;29;20085;-76
2022/04/03 06:11:57;;;;;;;10.25;5.50;;;2.40;99.90;;;;;;4803660;29;20158;-76
2022/04/03 06:14:25;;;;;;;9.95;5.40;;;3.20;99.90;;;;;;4821924;29;20424;-76
2022/04/03 06:16:52;;;;;;;10.05;4.90;;;4.00;99.90;;;;;;4803073;29;20066;-76
2022/04/03 06:19:20;;;;;;;14.68;6.70;;;4.50;99.90;;;;;;4805120;29;20396;-76
2022/04/03 06:21:49;;;;;;;9.45;6.07;;;4.90;99.90;;;;;;4804475;29;20064;-76
2022/04/03 06:24:18;;;;;;;11.88;6.70;;;5.50;99.90;;;;;;4802124;29;20050;-76
2022/04/03 06:26:46;;;;;;;10.05;6.18;;;6.00;99.90;;;;;;4820552;29;20054;-76
2022/04/03 06:29:13;;;;;;;7.53;5.78;;;6.40;99.90;;;;;;4818626;29;20523;-75
2022/04/03 06:31:41;;;;;;;14.38;5.80;;;6.80;98.00;;;;;;4819661;29;20137;-77
2022/04/03 06:34:08;;;;;;;12.07;7.05;;;7.20;96.50;;;;;;4821300;29;20448;-77
2022/04/03 06:36:36;;;;;;;8.10;4.93;;;7.60;93.20;;;;;;4820413;29;20596;-76
2022/04/03 06:39:04;;;;;;;14.68;5.72;;;7.90;92.40;;;;;;4822163;29;20523;-76
2022/04/03 06:41:33;;;;;;;10.38;5.43;;;8.10;90.70;;;;;;4819814;29;20145;-76
2022/04/03 06:44:01;;;;;;;10.82;5.45;;;8.40;89.90;;;;;;4802395;29;20111;-79
2022/04/03 06:46:31;;;;;;;9.18;5.35;;;8.70;87.50;;;;;;4788934;29;20054;-77
2022/04/03 06:48:58;;;;;;;7.97;5.40;;;9.00;84.90;;;;;;4804558;29;20520;-79
2022/04/03 06:51:26;;;;;;;7.57;5.85;;;9.40;83.60;;;;;;4802505;29;20479;-78
2022/04/03 06:53:54;;;;;;;11.52;5.95;;;9.70;78.70;;;;;;4791176;29;20079;-78
2022/04/03 06:56:25;;;;;;;8.65;4.72;;;9.90;75.90;;;;;;4815162;29;20438;-77
2022/04/03 06:58:53;;;;;;;9.88;5.70;;;9.90;75.30;;;;;;4801190;29;20061;-79
2022/04/03 07:01:20;;;;;;;13.65;6.30;;;10.10;73.50;;;;;;4817606;29;20061;-79
2022/04/03 07:03:47;;;;;;;10.23;5.40;;;10.20;73.00;;;;;;4800989;29;20149;-79
2022/04/03 07:06:15;;;;;;;17.75;5.40;;;10.40;71.90;;;;;;4787331;29;20134;-79
2022/04/03 07:08:43;;;;;;;8.60;5.25;;;10.50;70.90;;;;;;4815732;29;20519;-80
2022/04/03 07:11:11;;;;;;;12.88;4.78;;;10.60;70.10;;;;;;4804561;29;20154;-79
2022/04/03 07:13:40;;;;;;;9.68;4.78;;;10.60;69.30;;;;;;4800639;29;20058;-78
2022/04/03 07:16:07;;;;;;;15.57;5.30;;;10.80;69.20;;;;;;4811437;29;20155;-75
2022/04/03 07:18:36;;;;;;;11.77;5.15;;;11.10;68.50;;;;;;4819913;29;20091;-79
2022/04/03 07:21:04;;;;;;;13.73;5.60;;;11.50;66.70;;;;;;4820547;29;20126;-79
2022/04/03 07:23:32;;;;;;;12.85;5.18;;;11.80;66.10;;;;;;4789560;29;20084;-78
2022/04/03 07:25:59;;;;;;;18.50;5.88;;;12.30;64.20;;;;;;4813510;29;20077;-80
2022/04/03 07:28:26;;;;;;;11.15;6.05;;;12.60;62.20;;;;;;4818657;29;20502;-77
2022/04/03 07:31:05;;;;;;;9.52;4.88;;;12.90;60.00;;;;;;4817875;29;20498;-78
2022/04/03 07:33:37;;;;;;;17.63;5.35;;;;;;;;;;4812244;29;20097;-78
2022/04/03 07:38:52;;;;;;;10.88;4.50;;;13.40;57.80;;;;;;4817042;29;20153;-79
2022/04/03 07:41:20;;;;;;;9.73;4.25;;;13.60;56.70;;;;;;4818694;29;20121;-78
2022/04/03 07:43:47;;;;;;;10.23;4.22;;;13.50;56.90;;;;;;4819877;29;20471;-79
2022/04/03 07:46:17;;;;;;;12.40;3.60;;;13.70;56.20;;;;;;4802063;29;20054;-78
2022/04/03 07:48:45;;;;;;;10.27;4.72;;;13.80;55.60;;;;;;4808810;29;20555;-78
2022/04/03 07:51:13;;;;;;;9.00;4.97;;;14.10;54.60;;;;;;4822238;29;20465;-75
2022/04/03 07:53:41;;;;;;;11.68;4.45;;;14.50;53.80;;;;;;4791357;29;20066;-77
2022/04/03 07:56:10;;;;;;;11.90;4.85;;;14.90;52.40;;;;;;4822419;29;20450;-75
2022/04/03 07:58:39;;;;;;;20.98;5.20;;;15.00;52.50;;;;;;4820380;29;20115;-77
2022/04/03 08:01:06;;;;;;;8.15;4.65;;;15.00;52.00;;;;;;4820590;29;20058;-79
2022/04/03 08:03:35;;;;;;;13.63;4.50;;;14.50;52.70;;;;;;4815316;29;20094;-78
2022/04/03 08:06:09;;;;;;;19.65;4.35;;;13.90;53.70;;;;;;4822943;29;20074;-76
2022/04/03 08:08:42;;;;;;;13.88;4.45;;;13.70;53.20;;;;;;4804915;29;20069;-78
2022/04/03 08:11:10;;;;;;;14.02;4.75;;;13.90;53.40;;;;;;4821090;29;20458;-76
2022/04/03 08:13:39;;;;;;;14.18;4.43;;;14.40;52.70;;;;;;4821023;29;20062;-78
2022/04/03 08:16:07;;;;;;;11.75;4.10;;;14.90;51.80;;;;;;4820885;29;20145;-77
2022/04/03 08:18:36;;;;;;;8.50;3.65;;;15.10;50.80;;;;;;4805724;29;20086;-81
2022/04/03 08:21:03;;;;;;;16.67;3.30;;;15.30;50.80;;;;;;4821670;29;20066;-80
2022/04/03 08:23:31;;;;;;;10.80;3.15;;;15.40;49.10;;;;;;4818420;29;20095;-79
2022/04/03 08:25:58;;;;;;;7.97;2.92;;;15.60;48.80;;;;;;4823655;29;20064;-80
2022/04/03 08:28:29;;;;;;;15.82;3.75;;;15.80;48.40;;;;;;4821247;29;20085;-81
2022/04/03 08:30:57;;;;;;;7.15;2.60;;;16.10;48.10;;;;;;4807988;29;20149;-78
2022/04/03 08:33:24;;;;;;;12.90;3.35;;;16.30;46.40;;;;;;4801424;29;20149;-77
2022/04/03 08:35:53;;;;;;;11.98;2.47;;;16.50;45.80;;;;;;4821920;29;20077;-77
2022/04/03 08:38:21;;;;;;;14.05;2.60;;;16.60;45.40;;;;;;4821780;29;20062;-76
2022/04/03 08:40:48;;;;;;;14.70;2.95;;;16.70;44.80;;;;;;4818416;29;20158;-76
2022/04/03 08:43:16;;;;;;;9.93;2.60;;;17.00;44.50;;;;;;4819753;29;20058;-78
2022/04/03 08:45:43;;;;;;;8.05;2.58;;;17.30;44.20;;;;;;4819725;29;20058;-80
2022/04/03 08:48:13;;;;;;;9.15;2.28;;;17.50;43.60;;;;;;4802853;29;20578;-79
2022/04/03 08:50:41;;;;;;;14.32;2.45;;;17.70;42.40;;;;;;4801929;29;20078;-78
2022/04/03 08:53:10;;;;;;;4.53;1.70;;;17.70;41.80;;;;;;4822841;29;20149;-79
2022/04/03 08:55:38;;;;;;;6.90;1.60;;;17.90;40.60;;;;;;4790394;29;20086;-79
2022/04/03 08:58:06;;;;;;;9.25;1.83;;;18.00;39.80;;;;;;4823275;29;20098;-78
2022/04/03 09:00:36;;;;;;;11.65;1.75;;;18.30;39.50;;;;;;4820603;29;20073;-79
2022/04/03 09:03:04;;;;;;;13.55;1.73;;;18.70;39.00;;;;;;4820784;29;20054;-79
2022/04/03 09:05:39;;;;;;;4.78;1.20;;;18.00;38.30;;;;;;4804327;29;20058;-77
2022/04/03 09:08:08;;;;;;;13.60;1.92;;;17.90;38.80;;;;;;4821131;29;20487;-78
2022/04/03 09:10:37;;;;;;;7.03;1.92;;;17.20;40.10;;;;;;4824213;29;20199;-79
2022/04/03 09:13:05;;;;;;;9.10;1.90;;;16.30;42.10;;;;;;4822358;29;20067;-78
2022/04/03 09:15:34;;;;;;;6.55;1.50;;;15.50;42.60;;;;;;4822514;29;20063;-79
2022/04/03 09:18:03;;;;;;;10.98;1.70;;;15.70;43.20;;;;;;4818386;29;20465;-79
2022/04/03 09:20:33;;;;;;;3.83;1.70;;;15.90;43.40;;;;;;4795385;29;20420;-80
2022/04/03 09:23:04;;;;;;;9.07;1.70;;;16.50;42.50;;;;;;4797951;29;20054;-80
2022/04/03 09:25:34;;;;;;;6.63;2.58;;;16.60;42.80;;;;;;4813076;29;20061;-79
2022/04/03 09:28:07;;;;;;;4.70;1.95;;;16.90;42.70;;;;;;4816070;29;20064;-80
2022/04/03 09:30:38;;;;;;;5.10;2.15;;;17.50;41.90;;;;;;4799658;29;20069;-81
2022/04/03 09:33:09;;;;;;;6.90;2.30;;;18.30;40.70;;;;;;4814461;29;20081;-80
2022/04/03 09:35:56;;;;;;;6.93;1.77;;;18.90;40.30;;;;;;4815842;29;20093;-79
2022/04/03 09:38:24;;;;;;;13.95;1.85;;;18.90;38.90;;;;;;4812356;29;20185;-78
2022/04/03 09:40:53;;;;;;;6.25;1.88;;;18.10;39.40;;;;;;4818113;29;20054;-80
2022/04/03 09:43:24;;;;;;;16.75;2.20;;;16.90;40.50;;;;;;4812927;29;20042;-78
2022/04/03 09:45:55;;;;;;;5.30;1.58;;;15.70;42.50;;;;;;4812742;29;20055;-76
2022/04/03 09:48:25;;;;;;;7.97;2.10;;;15.20;43.00;;;;;;4794074;29;20066;-78
2022/04/03 09:51:02;;;;;;;10.00;2.03;;;15.70;44.10;;;;;;4815669;29;20096;-78
2022/04/03 09:53:45;;;;;;;8.75;1.67;;;15.60;43.20;;;;;;4812521;29;20146;-77
2022/04/03 09:56:15;;;;;;;4.68;1.55;;;15.60;43.70;;;;;;4813621;29;20074;-77
2022/04/03 09:59:04;;;;;;;10.07;1.75;;;15.50;42.90;;;;;;4813874;29;20089;-76
2022/04/03 10:01:35;;;;;;;9.48;1.50;;;14.80;43.60;;;;;;4816777;29;20081;-74
2022/04/03 10:04:06;;;;;;;6.30;1.35;;;14.10;44.10;;;;;;4818946;29;20465;-74
2022/04/03 10:06:35;;;;;;;5.57;1.73;;;13.00;45.50;;;;;;4792644;29;20093;-73
2022/04/03 10:09:04;;;;;;;8.27;1.50;;;12.20;46.70;;;;;;4811941;29;20511;-76
2022/04/03 10:11:31;;;;;;;8.35;1.15;;;11.50;47.50;;;;;;4802495;29;20061;-74
2022/04/03 10:13:58;;;;;;;9.52;1.33;;;11.00;48.80;;;;;;4820184;29;20142;-75
2022/04/03 10:16:27;;;;;;;3.03;1.30;;;10.80;48.90;;;;;;4790254;29;20452;-76
2022/04/03 10:18:55;;;;;;;8.70;1.45;;;10.70;48.70;;;;;;4819850;29;20156;-76
2022/04/03 10:21:33;;;;;;;9.60;1.20;;;10.70;48.80;;;;;;4821136;29;20062;-80
2022/04/03 10:24:09;;;;;;;5.68;1.85;;;10.50;50.20;;;;;;4821294;29;20327;-79
2022/04/03 10:26:39;;;;;;;7.18;1.55;;;10.50;51.10;;;;;;4805383;29;20090;-78
2022/04/03 10:29:10;;;;;;;10.30;1.92;;;10.70;51.80;;;;;;4802221;29;20439;-78
2022/04/03 10:31:39;;;;;;;7.50;2.22;;;11.30;51.30;;;;;;4802898;29;20063;-79
2022/04/03 10:34:07;;;;;;;7.43;1.50;;;11.80;51.20;;;;;;4819907;29;20055;-79
2022/04/03 10:36:38;;;;;;;1.88;1.13;;;12.30;50.80;;;;;;4805529;29;20115;-79
2022/04/03 10:39:10;;;;;;;4.03;1.30;;;12.40;50.20;;;;;;4802275;29;20157;-79
2022/04/03 10:41:40;;;;;;;7.22;1.65;;;12.30;50.10;;;;;;4821150;29;20054;-80
2022/04/03 10:44:16;;;;;;;7.43;1.45;;;12.50;50.50;;;;;;4802094;29;20057;-76
2022/04/03 10:47:24;;;;;;;5.45;1.35;;;12.70;49.90;;;;;;4821190;29;20149;-79
2022/04/03 10:50:02;;;;;;;4.15;1.30;;;12.60;48.90;;;;;;4729782;30;20060;-79
2022/04/03 10:52:58;;;;;;;5.18;1.50;;;12.10;49.80;;;;;;4740860;30;20063;-80
2022/04/03 10:55:38;;;;;;;6.45;1.02;;;11.60;50.70;;;;;;4800096;29;20154;-78
2022/04/03 10:58:16;;;;;;;3.15;1.05;;;11.20;51.30;;;;;;4803857;29;20062;-79
2022/04/03 11:00:44;;;;;;;6.65;1.48;;;10.90;52.10;;;;;;4803248;29;20480;-76
2022/04/03 11:03:36;;;;;;;9.25;1.30;;;10.60;52.80;;;;;;4805956;29;20128;-75
2022/04/03 11:06:38;;;;;;;9.57;1.10;;;10.20;54.20;;;;;;4802983;29;20115;-75
2022/04/03 11:09:14;;;;;;;19.25;2.58;;;9.90;55.40;;;;;;4804273;29;20062;-74
2022/04/03 11:11:53;;;;;;;11.13;1.75;;;9.90;55.90;;;;;;4819230;29;20520;-74
2022/04/03 11:14:58;;;;;;;5.95;1.67;;;10.10;57.00;;;;;;4803383;29;20066;-77
2022/04/03 11:17:51;;;;;;;5.65;1.45;;;10.00;56.20;;;;;;4803281;29;20265;-77
2022/04/03 11:20:42;;;;;;;5.03;1.15;;;9.60;56.80;;;;;;4797295;29;20135;-77
2022/04/03 11:23:15;;;;;;;4.13;1.45;;;9.20;57.60;;;;;;4822709;29;20123;-76
2022/04/03 11:25:43;;;;;;;4.90;1.33;;;9.00;57.90;;;;;;4817936;29;20259;-76
2022/04/03 11:28:11;;;;;;;6.90;1.63;;;8.90;59.10;;;;;;4806745;29;20050;-76
2022/04/03 11:30:39;;;;;;;7.50;1.80;;;8.80;59.90;;;;;;4823746;29;20119;-77
2022/04/03 11:33:08;;;;;;;7.18;1.50;;;8.70;60.80;;;;;;4822894;29;20064;-79
2022/04/03 11:35:43;;;;;;;4.75;1.10;;;8.50;60.80;;;;;;4801330;29;20082;-80
2022/04/03 11:38:11;;;;;;;3.97;1.20;;;8.40;61.50;;;;;;4795239;29;20054;-79
2022/04/03 11:40:41;;;;;;;8.40;1.10;;;8.40;62.40;;;;;;4807919;29;20170;-79
2022/04/03 11:43:13;;;;;;;4.72;1.13;;;8.20;62.10;;;;;;4821901;29;20066;-78
2022/04/03 11:45:41;;;;;;;8.32;1.33;;;7.90;62.00;;;;;;4824842;29;20058;-79
2022/04/03 11:48:23;;;;;;;10.77;2.33;;;7.50;62.90;;;;;;4819948;29;20072;-78
2022/04/03 11:51:05;;;;;;;6.60;1.30;;;7.20;63.40;;;;;;4804459;29;20062;-78
2022/04/03 11:53:33;;;;;;;7.03;1.58;;;7.10;64.00;;;;;;4815693;29;20065;-78
2022/04/03 11:56:12;;;;;;;4.82;1.35;;;7.00;63.60;;;;;;4822990;29;20058;-78
2022/04/03 11:58:42;;;;;;;7.72;0.82;;;7.20;63.30;;;;;;4806245;29;20111;-77
2022/04/03 12:01:11;;;;;;;4.25;1.35;;;7.50;61.90;;;;;;4804840;29;20062;-80
2022/04/03 12:03:40;;;;;;;3.22;1.20;;;7.70;61.00;;;;;;4823145;29;20073;-79
2022/04/03 12:06:17;;;;;;;4.82;1.23;;;8.00;61.30;;;;;;4824918;29;20062;-78
2022/04/03 12:08:47;;;;;;;5.00;1.42;;;8.00;61.00;;;;;;4819964;29;20050;-77
2022/04/03 12:11:28;;;;;;;7.32;1.50;;;7.90;61.50;;;;;;4812521;29;20071;-77
2022/04/03 12:13:57;;;;;;;5.35;1.23;;;7.50;63.00;;;;;;4806053;29;20051;-78
2022/04/03 12:16:27;;;;;;;3.83;1.30;;;7.20;65.30;;;;;;4808353;29;20066;-76
2022/04/03 12:18:57;;;;;;;10.65;1.05;;;7.00;67.00;;;;;;4823444;29;20069;-76
2022/04/03 12:21:44;;;;;;;5.40;1.70;;;6.80;68.50;;;;;;4823637;29;20145;-78
2022/04/03 12:24:14;;;;;;;5.03;1.10;;;6.70;70.20;;;;;;4807835;29;20069;-80
2022/04/03 12:26:50;;;;;;;6.07;1.50;;;6.60;71.60;;;;;;4806261;29;20424;-78
2022/04/03 12:29:19;;;;;;;3.53;1.52;;;6.90;73.30;;;;;;4806112;29;20162;-79
2022/04/03 12:31:58;;;;;;;7.78;1.85;;;6.90;75.00;;;;;;4823630;29;20095;-79
2022/04/03 12:34:28;;;;;;;8.13;2.13;;;7.00;77.00;;;;;;4788857;29;20129;-79
2022/04/03 12:36:59;;;;;;;6.32;1.92;;;6.90;79.40;;;;;;4822158;29;20070;-78
2022/04/03 12:39:42;;;;;;;10.73;2.38;;;6.80;81.50;;;;;;4822454;29;20500;-79
2022/04/03 12:42:20;;;;;;;6.03;1.77;;;6.50;86.70;;;;;;4807583;29;20055;-78
2022/04/03 12:44:52;;;;;;;6.18;1.77;;;6.10;91.00;;;;;;4822536;29;20118;-79
2022/04/03 12:47:22;;;;;;;9.87;1.67;;;5.80;94.30;;;;;;4817546;29;20050;-78
2022/04/03 12:50:08;;;;;;;5.57;1.60;;;5.70;97.10;;;;;;4812288;29;20062;-80
2022/04/03 12:52:43;;;;;;;7.45;1.80;;;6.20;98.30;;;;;;4806352;29;20118;-78
2022/04/03 12:55:36;;;;;;;6.88;2.22;;;7.60;91.80;;;;;;4814405;29;20061;-77
2022/04/03 12:58:29;;;;;;;7.53;1.50;;;8.00;84.20;;;;;;4802729;29;20228;-74